Time,TemperatureF,DewpointF,PressureIn,WindDirection,WindDirectionDegrees,WindSpeedMPH,WindSpeedGustMPH,Humidity,HourlyPrecipIn,Conditions,Clouds,dailyrainin,SoftwareType,DateUTC
2013-02-05 00:00:00,46.8,41.9,29.98,West,274,0.0,0.0,83,0.00,,,0.00,Wunderground v.1.15,2013-02-05 05:00:00,
2013-02-05 00:02:00,46.8,41.6,29.98,West,274,1.0,5.0,82,0.00,,,0.00,Wunderground v.1.15,2013-02-05 05:02:00,
2013-02-05 00:08:00,47.4,41.5,29.98,West,264,2.0,5.0,80,0.00,,,0.00,Wunderground v.1.15,2013-02-05 05:08:00,
2013-02-05 00:12:00,47.6,41.7,29.98,West,272,3.0,5.0,80,0.00,,,0.00,Wunderground v.1.15,2013-02-05 05:12:00,
2013-02-05 00:18:00,47.6,41.7,29.97,West,261,3.0,5.0,80,0.00,,,0.00,Wunderground v.1.15,2013-02-05 05:18:00,
2013-02-05 00:24:00,47.7,41.8,29.97,West,263,2.0,3.0,80,0.00,,,0.00,Wunderground v.1.15,2013-02-05 05:24:00,
2013-02-05 00:30:00,47.7,41.8,29.97,WSW,257,2.0,5.0,80,0.00,,,0.00,Wunderground v.1.15,2013-02-05 05:30:00,
2013-02-05 00:36:00,47.9,41.7,29.97,WSW,246,2.0,5.0,79,0.00,,,0.00,Wunderground v.1.15,2013-02-05 05:36:00,
2013-02-05 00:42:00,47.7,41.8,29.97,WSW,256,2.0,3.0,80,0.00,,,0.00,Wunderground v.1.15,2013-02-05 05:42:00,
2013-02-05 00:48:00,47.7,41.8,29.96,West,260,2.0,3.0,80,0.00,,,0.00,Wunderground v.1.15,2013-02-05 05:48:00,
2013-02-05 00:54:00,47.9,42.0,29.96,West,261,2.0,3.0,80,0.00,,,0.00,Wunderground v.1.15,2013-02-05 05:54:00,
2013-02-05 01:00:00,48.0,42.1,29.96,WSW,257,3.0,4.0,80,0.00,,,0.00,Wunderground v.1.15,2013-02-05 06:00:00,
2013-02-05 01:06:00,48.0,42.1,29.96,West,265,3.0,5.0,80,0.00,,,0.00,Wunderground v.1.15,2013-02-05 06:06:00,
2013-02-05 01:12:00,48.2,42.3,29.96,West,263,3.0,5.0,80,0.00,,,0.00,Wunderground v.1.15,2013-02-05 06:12:00,
2013-02-05 01:18:00,48.3,42.4,29.96,West,271,3.0,5.0,80,0.00,,,0.00,Wunderground v.1.15,2013-02-05 06:18:00,
2013-02-05 01:24:00,48.2,42.3,29.96,WNW,282,2.0,3.0,80,0.00,,,0.00,Wunderground v.1.15,2013-02-05 06:24:00,
2013-02-05 01:30:00,48.3,42.7,29.95,West,261,2.0,5.0,81,0.00,,,0.00,Wunderground v.1.15,2013-02-05 06:30:00,
2013-02-05 01:36:00,48.3,42.7,29.95,West,264,3.0,6.0,81,0.00,,,0.00,Wunderground v.1.15,2013-02-05 06:36:00,
2013-02-05 01:42:00,48.2,43.0,29.95,West,267,3.0,3.0,82,0.00,,,0.00,Wunderground v.1.15,2013-02-05 06:42:00,
2013-02-05 01:48:00,48.2,43.3,29.94,West,272,2.0,5.0,83,0.00,,,0.00,Wunderground v.1.15,2013-02-05 06:48:00,
2013-02-05 01:54:00,48.3,43.4,29.94,West,270,3.0,3.0,83,0.00,,,0.00,Wunderground v.1.15,2013-02-05 06:54:00,
2013-02-05 02:00:00,48.6,43.7,29.94,West,270,2.0,2.0,83,0.00,,,0.00,Wunderground v.1.15,2013-02-05 07:00:00,
2013-02-05 02:06:00,48.5,43.6,29.94,West,270,2.0,3.0,83,0.00,,,0.00,Wunderground v.1.15,2013-02-05 07:06:00,
2013-02-05 02:12:00,48.5,43.9,29.94,West,264,0.0,1.0,84,0.00,,,0.00,Wunderground v.1.15,2013-02-05 07:12:00,
2013-02-05 02:18:00,48.3,43.7,29.93,West,264,0.0,1.0,84,0.00,,,0.00,Wunderground v.1.15,2013-02-05 07:18:00,
2013-02-05 02:24:00,48.3,43.7,29.93,West,264,0.0,0.0,84,0.00,,,0.00,Wunderground v.1.15,2013-02-05 07:24:00,
2013-02-05 02:30:00,48.0,44.0,29.93,West,264,0.0,0.0,86,0.00,,,0.00,Wunderground v.1.15,2013-02-05 07:30:00,
2013-02-05 02:36:00,47.4,44.3,29.93,West,264,0.0,0.0,89,0.00,,,0.00,Wunderground v.1.15,2013-02-05 07:36:00,
2013-02-05 02:42:00,47.0,44.5,29.93,West,264,0.0,0.0,91,0.00,,,0.00,Wunderground v.1.15,2013-02-05 07:42:00,
2013-02-05 02:48:00,46.7,44.5,29.93,West,264,0.0,0.0,92,0.00,,,0.00,Wunderground v.1.15,2013-02-05 07:48:00,
2013-02-05 02:54:00,46.8,44.6,29.93,West,264,0.0,0.0,92,0.00,,,0.00,Wunderground v.1.15,2013-02-05 07:54:00,
2013-02-05 03:00:00,47.3,44.8,29.93,West,264,0.0,0.0,91,0.00,,,0.00,Wunderground v.1.15,2013-02-05 08:00:00,
2013-02-05 03:06:00,47.9,45.1,29.93,West,264,0.0,0.0,90,0.00,,,0.00,Wunderground v.1.15,2013-02-05 08:06:00,
2013-02-05 03:12:00,48.3,45.2,29.93,West,264,0.0,0.0,89,0.00,,,0.00,Wunderground v.1.15,2013-02-05 08:12:00,
2013-02-05 03:18:00,47.9,45.1,29.92,West,264,0.0,0.0,90,0.00,,,0.00,Wunderground v.1.15,2013-02-05 08:18:00,
2013-02-05 03:24:00,47.4,44.9,29.92,West,264,0.0,0.0,91,0.00,,,0.00,Wunderground v.1.15,2013-02-05 08:24:00,
2013-02-05 03:30:00,47.7,45.5,29.92,West,264,0.0,0.0,92,0.00,,,0.00,Wunderground v.1.15,2013-02-05 08:30:00,
2013-02-05 03:36:00,48.2,45.7,29.92,West,264,0.0,0.0,91,0.00,,,0.00,Wunderground v.1.15,2013-02-05 08:36:00,
2013-02-05 03:42:00,48.2,45.7,29.92,West,264,0.0,0.0,91,0.00,,,0.00,Wunderground v.1.15,2013-02-05 08:42:00,
2013-02-05 03:48:00,48.2,45.7,29.91,West,264,0.0,0.0,91,0.00,,,0.00,Wunderground v.1.15,2013-02-05 08:48:00,
2013-02-05 03:54:00,47.9,45.4,29.91,West,264,0.0,0.0,91,0.00,,,0.00,Wunderground v.1.15,2013-02-05 08:54:00,
2013-02-05 04:00:00,47.7,45.5,29.91,West,264,0.0,0.0,92,0.00,,,0.00,Wunderground v.1.15,2013-02-05 09:00:00,
2013-02-05 04:06:00,47.7,45.5,29.91,WSW,244,1.0,5.0,92,0.00,,,0.00,Wunderground v.1.15,2013-02-05 09:06:00,
2013-02-05 04:12:00,48.3,46.1,29.91,WSW,243,2.0,2.0,92,0.00,,,0.00,Wunderground v.1.15,2013-02-05 09:12:00,
2013-02-05 04:18:00,48.8,46.3,29.92,SW,227,2.0,3.0,91,0.00,,,0.00,Wunderground v.1.15,2013-02-05 09:18:00,
2013-02-05 04:24:00,48.9,46.4,29.92,SW,229,2.0,3.0,91,0.00,,,0.00,Wunderground v.1.15,2013-02-05 09:24:00,
2013-02-05 04:30:00,49.1,46.3,29.91,SW,220,1.0,1.0,90,0.00,,,0.00,Wunderground v.1.15,2013-02-05 09:30:00,
2013-02-05 04:36:00,49.1,46.6,29.91,SW,220,2.0,2.0,91,0.00,,,0.00,Wunderground v.1.15,2013-02-05 09:36:00,
2013-02-05 04:42:00,48.9,46.4,29.91,WSW,237,2.0,5.0,91,0.00,,,0.00,Wunderground v.1.15,2013-02-05 09:42:00,
2013-02-05 04:48:00,49.4,46.9,29.92,SW,223,3.0,5.0,91,0.00,,,0.00,Wunderground v.1.15,2013-02-05 09:48:00,
2013-02-05 04:54:00,49.5,47.0,29.92,SSW,210,3.0,3.0,91,0.00,,,0.00,Wunderground v.1.15,2013-02-05 09:54:00,
2013-02-05 05:00:00,49.6,47.1,29.91,SW,224,2.0,2.0,91,0.00,,,0.00,Wunderground v.1.15,2013-02-05 10:00:00,
2013-02-05 05:06:00,49.6,47.1,29.91,SW,223,2.0,5.0,91,0.00,,,0.00,Wunderground v.1.15,2013-02-05 10:06:00,
2013-02-05 05:12:00,49.6,47.1,29.91,SW,220,3.0,6.0,91,0.00,,,0.00,Wunderground v.1.15,2013-02-05 10:12:00,
2013-02-05 05:18:00,49.9,47.1,29.92,SW,232,4.0,6.0,90,0.00,,,0.00,Wunderground v.1.15,2013-02-05 10:18:00,
2013-02-05 05:24:00,50.1,47.0,29.92,WSW,240,3.0,4.0,89,0.00,,,0.00,Wunderground v.1.15,2013-02-05 10:24:00,
2013-02-05 05:30:00,50.1,47.3,29.92,WSW,244,3.0,3.0,90,0.00,,,0.00,Wunderground v.1.15,2013-02-05 10:30:00,
2013-02-05 05:36:00,50.1,47.3,29.92,SSW,205,3.0,4.0,90,0.00,,,0.00,Wunderground v.1.15,2013-02-05 10:36:00,
2013-02-05 05:42:00,49.9,47.4,29.92,SW,216,1.0,2.0,91,0.00,,,0.00,Wunderground v.1.15,2013-02-05 10:42:00,
2013-02-05 05:48:00,49.9,47.4,29.92,WSW,237,1.0,2.0,91,0.00,,,0.00,Wunderground v.1.15,2013-02-05 10:48:00,
2013-02-05 05:54:00,50.1,47.6,29.92,SW,232,1.0,2.0,91,0.00,,,0.00,Wunderground v.1.15,2013-02-05 10:54:00,
2013-02-05 06:00:00,50.1,47.6,29.92,WSW,240,0.0,0.0,91,0.00,,,0.00,Wunderground v.1.15,2013-02-05 11:00:00,
2013-02-05 06:06:00,50.2,48.0,29.92,SW,224,0.0,1.0,92,0.00,,,0.00,Wunderground v.1.15,2013-02-05 11:06:00,
2013-02-05 06:12:00,50.4,47.9,29.92,SW,229,2.0,2.0,91,0.00,,,0.00,Wunderground v.1.15,2013-02-05 11:12:00,
2013-02-05 06:18:00,50.5,48.0,29.93,WSW,241,3.0,3.0,91,0.00,,,0.00,Wunderground v.1.15,2013-02-05 11:18:00,
2013-02-05 06:24:00,50.7,47.6,29.93,WSW,250,3.0,4.0,89,0.00,,,0.00,Wunderground v.1.15,2013-02-05 11:24:00,
2013-02-05 06:30:00,50.8,47.1,29.93,SW,234,3.0,3.0,87,0.00,,,0.00,Wunderground v.1.15,2013-02-05 11:30:00,
2013-02-05 06:36:00,50.8,46.5,29.93,WSW,257,3.0,5.0,85,0.00,,,0.00,Wunderground v.1.15,2013-02-05 11:36:00,
2013-02-05 06:42:00,51.0,46.0,29.93,WSW,257,2.0,3.0,83,0.00,,,0.00,Wunderground v.1.15,2013-02-05 11:42:00,
2013-02-05 06:48:00,51.0,45.7,29.94,WSW,248,2.0,4.0,82,0.00,,,0.00,Wunderground v.1.15,2013-02-05 11:48:00,
2013-02-05 06:54:00,51.0,45.0,29.94,WSW,250,3.0,3.0,80,0.00,,,0.00,Wunderground v.1.15,2013-02-05 11:54:00,
2013-02-05 07:00:00,51.0,44.7,29.93,WSW,251,2.0,3.0,79,0.00,,,0.00,Wunderground v.1.15,2013-02-05 12:00:00,
2013-02-05 07:06:00,51.1,45.1,29.93,WSW,248,1.0,3.0,80,0.00,,,0.00,Wunderground v.1.15,2013-02-05 12:06:00,
2013-02-05 07:12:00,51.0,46.0,29.93,West,278,0.0,5.0,83,0.00,,,0.00,Wunderground v.1.15,2013-02-05 12:12:00,
2013-02-05 07:18:00,51.0,45.7,29.94,West,264,1.0,5.0,82,0.00,,,0.00,Wunderground v.1.15,2013-02-05 12:18:00,
2013-02-05 07:24:00,50.8,45.8,29.94,WSW,257,2.0,5.0,83,0.00,,,0.00,Wunderground v.1.15,2013-02-05 12:24:00,
2013-02-05 07:30:00,51.0,46.6,29.96,WSW,248,3.0,4.0,85,0.00,,,0.00,Wunderground v.1.15,2013-02-05 12:30:00,
2013-02-05 07:36:00,51.1,46.7,29.96,SW,234,4.0,4.0,85,0.00,,,0.00,Wunderground v.1.15,2013-02-05 12:36:00,
2013-02-05 07:42:00,51.6,46.6,29.96,WSW,247,3.0,6.0,83,0.00,,,0.00,Wunderground v.1.15,2013-02-05 12:42:00,
2013-02-05 07:48:00,51.9,46.6,29.97,SW,217,4.0,6.0,82,0.00,,,0.00,Wunderground v.1.15,2013-02-05 12:48:00,
2013-02-05 07:54:00,52.2,46.9,29.97,WSW,253,4.0,4.0,82,0.00,,,0.00,Wunderground v.1.15,2013-02-05 12:54:00,
2013-02-05 08:00:00,52.8,47.8,29.96,WSW,244,4.0,4.0,83,0.00,,,0.00,Wunderground v.1.15,2013-02-05 13:00:00,
2013-02-05 08:06:00,52.8,48.1,29.96,WSW,254,3.0,5.0,84,0.00,,,0.00,Wunderground v.1.15,2013-02-05 13:06:00,
2013-02-05 08:12:00,52.8,48.4,29.96,WSW,248,3.0,5.0,85,0.00,,,0.00,Wunderground v.1.15,2013-02-05 13:12:00,
2013-02-05 08:18:00,52.8,48.7,29.97,WSW,244,4.0,6.0,86,0.00,,,0.00,Wunderground v.1.15,2013-02-05 13:18:00,
2013-02-05 08:24:00,52.6,48.5,29.97,WSW,239,4.0,6.0,86,0.00,,,0.00,Wunderground v.1.15,2013-02-05 13:24:00,
2013-02-05 08:30:00,52.8,49.0,29.97,West,263,5.0,7.0,87,0.00,,,0.00,Wunderground v.1.15,2013-02-05 13:30:00,
2013-02-05 08:36:00,53.1,49.3,29.97,West,260,5.0,7.0,87,0.00,,,0.00,Wunderground v.1.15,2013-02-05 13:36:00,
2013-02-05 08:42:00,53.2,49.1,29.97,WSW,256,5.0,5.0,86,0.00,,,0.00,Wunderground v.1.15,2013-02-05 13:42:00,
2013-02-05 08:48:00,53.2,49.1,29.96,WNW,284,5.0,7.0,86,0.00,,,0.00,Wunderground v.1.15,2013-02-05 13:48:00,
2013-02-05 08:54:00,53.1,49.0,29.96,WSW,246,4.0,5.0,86,0.00,,,0.00,Wunderground v.1.15,2013-02-05 13:54:00,
2013-02-05 09:00:00,52.8,48.7,29.97,West,278,4.0,6.0,86,0.00,,,0.00,Wunderground v.1.15,2013-02-05 14:00:00,
2013-02-05 09:06:00,52.6,48.5,29.97,West,265,6.0,8.0,86,0.00,,,0.00,Wunderground v.1.15,2013-02-05 14:06:00,
2013-02-05 09:12:00,52.8,48.4,29.97,West,267,6.0,8.0,85,0.00,,,0.00,Wunderground v.1.15,2013-02-05 14:12:00,
2013-02-05 09:18:00,53.3,48.9,29.98,WNW,299,7.0,8.0,85,0.00,,,0.00,Wunderground v.1.15,2013-02-05 14:18:00,
2013-02-05 09:24:00,53.9,49.2,29.98,WNW,292,8.0,11.0,84,0.00,,,0.00,Wunderground v.1.15,2013-02-05 14:24:00,
2013-02-05 09:30:00,54.5,49.4,29.99,West,280,8.0,8.0,83,0.00,,,0.00,Wunderground v.1.15,2013-02-05 14:30:00,
2013-02-05 09:36:00,55.1,49.7,29.99,WNW,302,7.0,8.0,82,0.00,,,0.00,Wunderground v.1.15,2013-02-05 14:36:00,
2013-02-05 09:42:00,55.7,50.3,29.99,NW,308,7.0,14.0,82,0.00,,,0.00,Wunderground v.1.15,2013-02-05 14:42:00,
2013-02-05 09:48:00,56.0,50.3,29.99,WNW,302,8.0,14.0,81,0.00,,,0.00,Wunderground v.1.15,2013-02-05 14:48:00,
2013-02-05 09:54:00,56.3,50.5,29.99,NW,315,9.0,9.0,81,0.00,,,0.00,Wunderground v.1.15,2013-02-05 14:54:00,
2013-02-05 10:00:00,56.5,50.7,29.99,WNW,294,11.0,11.0,81,0.00,,,0.00,Wunderground v.1.15,2013-02-05 15:00:00,
2013-02-05 10:06:00,56.5,51.1,29.99,WNW,288,10.0,11.0,82,0.00,,,0.00,Wunderground v.1.15,2013-02-05 15:06:00,
2013-02-05 10:12:00,56.5,50.7,29.99,West,280,7.0,12.0,81,0.00,,,0.00,Wunderground v.1.15,2013-02-05 15:12:00,
2013-02-05 10:18:00,56.7,50.9,29.98,NW,311,7.0,12.0,81,0.00,,,0.00,Wunderground v.1.15,2013-02-05 15:18:00,
2013-02-05 10:24:00,57.0,50.9,29.98,WNW,301,8.0,11.0,80,0.00,,,0.00,Wunderground v.1.15,2013-02-05 15:24:00,
2013-02-05 10:30:00,57.2,51.1,29.98,WNW,294,9.0,10.0,80,0.00,,,0.00,Wunderground v.1.15,2013-02-05 15:30:00,
2013-02-05 10:36:00,57.3,50.8,29.98,WNW,301,10.0,17.0,79,0.00,,,0.00,Wunderground v.1.15,2013-02-05 15:36:00,
2013-02-05 10:42:00,57.5,51.0,29.98,WNW,299,12.0,16.0,79,0.00,,,0.00,Wunderground v.1.15,2013-02-05 15:42:00,
2013-02-05 10:48:00,58.0,51.5,29.97,NW,320,12.0,16.0,79,0.00,,,0.00,Wunderground v.1.15,2013-02-05 15:48:00,
2013-02-05 10:54:00,58.7,52.2,29.97,WNW,296,10.0,13.0,79,0.00,,,0.00,Wunderground v.1.15,2013-02-05 15:54:00,
2013-02-05 11:00:00,58.9,51.7,29.97,WNW,299,9.0,9.0,77,0.00,,,0.00,Wunderground v.1.15,2013-02-05 16:00:00,
2013-02-05 11:06:00,59.8,52.6,29.97,WNW,284,9.0,11.0,77,0.00,,,0.00,Wunderground v.1.15,2013-02-05 16:06:00,
2013-02-05 11:12:00,60.4,52.4,29.97,WNW,285,7.0,8.0,75,0.00,,,0.00,Wunderground v.1.15,2013-02-05 16:12:00,
2013-02-05 11:18:00,60.5,51.8,29.96,West,264,5.0,10.0,73,0.00,,,0.00,Wunderground v.1.15,2013-02-05 16:18:00,
2013-02-05 11:24:00,60.9,52.6,29.96,WNW,294,7.0,12.0,74,0.00,,,0.00,Wunderground v.1.15,2013-02-05 16:24:00,
2013-02-05 11:30:00,60.9,52.2,29.96,WNW,285,11.0,14.0,73,0.00,,,0.00,Wunderground v.1.15,2013-02-05 16:30:00,
2013-02-05 11:36:00,61.3,52.2,29.96,WNW,291,12.0,18.0,72,0.00,,,0.00,Wunderground v.1.15,2013-02-05 16:36:00,
2013-02-05 11:42:00,61.6,52.1,29.96,WNW,302,12.0,14.0,71,0.00,,,0.00,Wunderground v.1.15,2013-02-05 16:42:00,
2013-02-05 11:48:00,62.0,52.1,29.95,West,280,11.0,16.0,70,0.00,,,0.00,Wunderground v.1.15,2013-02-05 16:48:00,
2013-02-05 11:54:00,62.0,52.9,29.95,WNW,295,10.0,16.0,72,0.00,,,0.00,Wunderground v.1.15,2013-02-05 16:54:00,
2013-02-05 12:00:00,61.8,52.3,29.94,NW,311,13.0,14.0,71,0.00,,,0.00,Wunderground v.1.15,2013-02-05 17:00:00,
2013-02-05 12:06:00,62.0,51.7,29.94,NW,304,14.0,16.0,69,0.00,,,0.00,Wunderground v.1.15,2013-02-05 17:06:00,
2013-02-05 12:12:00,62.9,52.6,29.94,WNW,296,12.0,17.0,69,0.00,,,0.00,Wunderground v.1.15,2013-02-05 17:12:00,
2013-02-05 12:18:00,63.7,52.1,29.94,West,265,10.0,17.0,66,0.00,,,0.00,Wunderground v.1.15,2013-02-05 17:18:00,
2013-02-05 12:24:00,64.2,51.3,29.94,NW,305,6.0,10.0,63,0.00,,,0.00,Wunderground v.1.15,2013-02-05 17:24:00,
2013-02-05 12:30:00,63.7,50.4,29.93,WNW,295,10.0,17.0,62,0.00,,,0.00,Wunderground v.1.15,2013-02-05 17:30:00,
2013-02-05 12:36:00,63.7,50.9,29.93,West,274,14.0,17.0,63,0.00,,,0.00,Wunderground v.1.15,2013-02-05 17:36:00,
2013-02-05 12:42:00,64.2,51.8,29.93,West,261,12.0,13.0,64,0.00,,,0.00,Wunderground v.1.15,2013-02-05 17:42:00,
2013-02-05 12:48:00,64.5,51.2,29.91,West,281,10.0,16.0,62,0.00,,,0.00,Wunderground v.1.15,2013-02-05 17:48:00,
2013-02-05 12:54:00,64.2,50.0,29.91,WSW,244,11.0,12.0,60,0.00,,,0.00,Wunderground v.1.15,2013-02-05 17:54:00,
2013-02-05 13:00:00,64.8,49.2,29.91,WSW,258,9.0,9.0,57,0.00,,,0.00,Wunderground v.1.15,2013-02-05 18:00:00,
2013-02-05 13:06:00,65.2,49.1,29.91,SW,229,9.0,11.0,56,0.00,,,0.00,Wunderground v.1.15,2013-02-05 18:06:00,
2013-02-05 13:12:00,65.3,50.1,29.91,WNW,284,9.0,10.0,58,0.00,,,0.00,Wunderground v.1.15,2013-02-05 18:12:00,
2013-02-05 13:18:00,65.5,48.9,29.90,West,271,7.0,15.0,55,0.00,,,0.00,Wunderground v.1.15,2013-02-05 18:18:00,
2013-02-05 13:24:00,65.3,48.2,29.90,West,280,10.0,14.0,54,0.00,,,0.00,Wunderground v.1.15,2013-02-05 18:24:00,
2013-02-05 13:30:00,65.5,48.9,29.89,NW,313,12.0,12.0,55,0.00,,,0.00,Wunderground v.1.15,2013-02-05 18:30:00,
2013-02-05 13:36:00,66.1,48.0,29.89,West,265,10.0,12.0,52,0.00,,,0.00,Wunderground v.1.15,2013-02-05 18:36:00,
2013-02-05 13:42:00,66.3,48.1,29.89,West,277,10.0,16.0,52,0.00,,,0.00,Wunderground v.1.15,2013-02-05 18:42:00,
2013-02-05 13:48:00,67.1,49.4,29.88,SW,226,8.0,16.0,53,0.00,,,0.00,Wunderground v.1.15,2013-02-05 18:48:00,
2013-02-05 13:54:00,66.9,50.2,29.88,NW,313,7.0,16.0,55,0.00,,,0.00,Wunderground v.1.15,2013-02-05 18:54:00,
2013-02-05 14:00:00,65.6,53.5,29.88,WSW,237,8.0,8.0,65,0.00,,,0.00,Wunderground v.1.15,2013-02-05 19:00:00,
2013-02-05 14:06:00,65.3,54.1,29.88,SSW,208,6.0,9.0,67,0.00,,,0.00,Wunderground v.1.15,2013-02-05 19:06:00,
2013-02-05 14:12:00,65.5,53.8,29.88,South,181,5.0,11.0,66,0.00,,,0.00,Wunderground v.1.15,2013-02-05 19:12:00,
2013-02-05 14:18:00,64.7,53.9,29.88,SSW,203,7.0,11.0,68,0.00,,,0.00,Wunderground v.1.15,2013-02-05 19:18:00,
2013-02-05 14:24:00,65.2,54.4,29.88,SSW,195,6.0,13.0,68,0.00,,,0.00,Wunderground v.1.15,2013-02-05 19:24:00,
2013-02-05 14:30:00,64.3,53.9,29.87,SSW,200,6.0,11.0,69,0.00,,,0.00,Wunderground v.1.15,2013-02-05 19:30:00,
2013-02-05 14:36:00,64.0,54.0,29.87,SSW,210,7.0,11.0,70,0.00,,,0.00,Wunderground v.1.15,2013-02-05 19:36:00,
2013-02-05 14:42:00,64.5,54.1,29.87,SW,233,6.0,8.0,69,0.00,,,0.00,Wunderground v.1.15,2013-02-05 19:42:00,
2013-02-05 14:48:00,64.2,54.2,29.87,South,182,6.0,11.0,70,0.00,,,0.00,Wunderground v.1.15,2013-02-05 19:48:00,
2013-02-05 14:54:00,63.7,54.1,29.87,SW,224,8.0,13.0,71,0.00,,,0.00,Wunderground v.1.15,2013-02-05 19:54:00,
2013-02-05 15:00:00,63.2,54.0,29.87,South,184,9.0,13.0,72,0.00,,,0.00,Wunderground v.1.15,2013-02-05 20:00:00,
2013-02-05 15:06:00,62.9,54.5,29.87,West,261,9.0,19.0,74,0.00,,,0.00,Wunderground v.1.15,2013-02-05 20:06:00,
2013-02-05 15:12:00,62.3,53.9,29.87,SSW,199,9.0,12.0,74,0.00,,,0.00,Wunderground v.1.15,2013-02-05 20:12:00,
2013-02-05 15:18:00,62.0,53.6,29.87,SSW,203,9.0,13.0,74,0.00,,,0.00,Wunderground v.1.15,2013-02-05 20:18:00,
2013-02-05 15:24:00,61.8,53.8,29.87,South,169,9.0,9.0,75,0.00,,,0.00,Wunderground v.1.15,2013-02-05 20:24:00,
2013-02-05 15:30:00,61.5,53.5,29.87,SSW,202,9.0,13.0,75,0.00,,,0.00,Wunderground v.1.15,2013-02-05 20:30:00,
2013-02-05 15:36:00,61.2,54.3,29.87,SW,227,10.0,14.0,78,0.00,,,0.00,Wunderground v.1.15,2013-02-05 20:36:00,
2013-02-05 15:42:00,61.0,54.1,29.87,SSW,199,8.0,10.0,78,0.00,,,0.00,Wunderground v.1.15,2013-02-05 20:42:00,
2013-02-05 15:48:00,61.0,54.4,29.87,SW,229,7.0,10.0,79,0.00,,,0.00,Wunderground v.1.15,2013-02-05 20:48:00,
2013-02-05 15:54:00,61.0,54.8,29.87,WSW,248,7.0,13.0,80,0.00,,,0.00,Wunderground v.1.15,2013-02-05 20:54:00,
2013-02-05 16:00:00,61.0,54.8,29.87,SW,220,8.0,13.0,80,0.00,,,0.00,Wunderground v.1.15,2013-02-05 21:00:00,
2013-02-05 16:06:00,61.0,54.8,29.87,South,186,7.0,13.0,80,0.00,,,0.00,Wunderground v.1.15,2013-02-05 21:06:00,
2013-02-05 16:12:00,61.0,55.1,29.87,SSW,205,6.0,7.0,81,0.00,,,0.00,Wunderground v.1.15,2013-02-05 21:12:00,
2013-02-05 16:18:00,61.0,55.1,29.87,SW,236,5.0,7.0,81,0.00,,,0.00,Wunderground v.1.15,2013-02-05 21:18:00,
2013-02-05 16:24:00,61.3,55.1,29.87,SSW,208,4.0,6.0,80,0.00,,,0.00,Wunderground v.1.15,2013-02-05 21:24:00,
2013-02-05 16:30:00,61.5,55.6,29.87,SSW,192,5.0,9.0,81,0.00,,,0.00,Wunderground v.1.15,2013-02-05 21:30:00,
2013-02-05 16:36:00,61.6,55.0,29.87,WSW,256,5.0,9.0,79,0.00,,,0.00,Wunderground v.1.15,2013-02-05 21:36:00,
2013-02-05 16:42:00,61.5,54.9,29.87,SSE,167,5.0,5.0,79,0.00,,,0.00,Wunderground v.1.15,2013-02-05 21:42:00,
2013-02-05 16:48:00,61.5,54.9,29.87,SW,223,5.0,5.0,79,0.00,,,0.00,Wunderground v.1.15,2013-02-05 21:48:00,
2013-02-05 16:54:00,61.3,54.7,29.87,SSW,193,6.0,10.0,79,0.00,,,0.00,Wunderground v.1.15,2013-02-05 21:54:00,
2013-02-05 17:00:00,61.0,54.4,29.87,South,182,6.0,6.0,79,0.00,,,0.00,Wunderground v.1.15,2013-02-05 22:00:00,
2013-02-05 17:06:00,60.9,54.3,29.87,SSW,212,6.0,11.0,79,0.00,,,0.00,Wunderground v.1.15,2013-02-05 22:06:00,
2013-02-05 17:12:00,60.9,54.3,29.87,SW,215,7.0,12.0,79,0.00,,,0.00,Wunderground v.1.15,2013-02-05 22:12:00,
2013-02-05 17:18:00,60.7,54.1,29.87,SW,234,6.0,12.0,79,0.00,,,0.00,Wunderground v.1.15,2013-02-05 22:18:00,
2013-02-05 17:24:00,60.4,54.2,29.87,SW,234,4.0,11.0,80,0.00,,,0.00,Wunderground v.1.15,2013-02-05 22:24:00,
2013-02-05 17:30:00,59.8,54.0,29.87,SSW,202,5.0,6.0,81,0.00,,,0.00,Wunderground v.1.15,2013-02-05 22:30:00,
2013-02-05 17:36:00,59.3,53.8,29.87,WSW,250,5.0,8.0,82,0.00,,,0.00,Wunderground v.1.15,2013-02-05 22:36:00,
2013-02-05 17:42:00,59.0,53.8,29.87,SW,236,5.0,6.0,83,0.00,,,0.00,Wunderground v.1.15,2013-02-05 22:42:00,
2013-02-05 17:48:00,58.7,53.9,29.88,WSW,239,5.0,6.0,84,0.00,,,0.00,Wunderground v.1.15,2013-02-05 22:48:00,
2013-02-05 17:54:00,58.4,53.9,29.88,WSW,254,5.0,8.0,85,0.00,,,0.00,Wunderground v.1.15,2013-02-05 22:54:00,
2013-02-05 18:00:00,58.3,54.1,29.88,SW,236,5.0,5.0,86,0.00,,,0.00,Wunderground v.1.15,2013-02-05 23:00:00,
2013-02-05 18:06:00,58.1,53.9,29.88,SSW,213,5.0,8.0,86,0.00,,,0.00,Wunderground v.1.15,2013-02-05 23:06:00,
2013-02-05 18:12:00,58.0,54.2,29.88,SW,220,5.0,5.0,87,0.00,,,0.00,Wunderground v.1.15,2013-02-05 23:12:00,
2013-02-05 18:18:00,57.8,54.3,29.88,SW,227,5.0,8.0,88,0.00,,,0.00,Wunderground v.1.15,2013-02-05 23:18:00,
2013-02-05 18:24:00,57.6,54.1,29.88,WSW,248,5.0,7.0,88,0.00,,,0.00,Wunderground v.1.15,2013-02-05 23:24:00,
2013-02-05 18:30:00,57.6,54.4,29.88,SSW,195,5.0,5.0,89,0.00,,,0.00,Wunderground v.1.15,2013-02-05 23:30:00,
2013-02-05 18:36:00,57.5,54.3,29.88,SW,219,5.0,6.0,89,0.00,,,0.00,Wunderground v.1.15,2013-02-05 23:36:00,
2013-02-05 18:42:00,57.5,54.6,29.88,SW,224,6.0,7.0,90,0.00,,,0.00,Wunderground v.1.15,2013-02-05 23:42:00,
2013-02-05 18:48:00,57.5,54.6,29.89,SSW,208,5.0,7.0,90,0.00,,,0.00,Wunderground v.1.15,2013-02-05 23:48:00,
2013-02-05 18:54:00,57.3,54.7,29.89,SW,236,6.0,9.0,91,0.00,,,0.00,Wunderground v.1.15,2013-02-05 23:54:00,
2013-02-05 19:00:00,57.3,54.7,29.90,SW,217,5.0,7.0,91,0.00,,,0.00,Wunderground v.1.15,2013-02-06 00:00:00,
2013-02-05 19:06:00,57.3,54.7,29.90,WSW,241,5.0,10.0,91,0.00,,,0.00,Wunderground v.1.15,2013-02-06 00:06:00,
2013-02-05 19:12:00,57.3,54.7,29.90,West,271,5.0,7.0,91,0.00,,,0.00,Wunderground v.1.15,2013-02-06 00:12:00,
2013-02-05 19:18:00,57.3,55.0,29.90,SSW,210,6.0,7.0,92,0.00,,,0.00,Wunderground v.1.15,2013-02-06 00:18:00,
2013-02-05 19:24:00,57.2,54.9,29.90,WSW,250,5.0,8.0,92,0.00,,,0.00,Wunderground v.1.15,2013-02-06 00:24:00,
2013-02-05 19:30:00,57.2,54.9,29.90,West,267,5.0,11.0,92,0.00,,,0.00,Wunderground v.1.15,2013-02-06 00:30:00,
2013-02-05 19:36:00,57.0,54.7,29.90,West,281,6.0,11.0,92,0.00,,,0.00,Wunderground v.1.15,2013-02-06 00:36:00,
2013-02-05 19:42:00,57.0,54.7,29.90,SSW,205,5.0,11.0,92,0.00,,,0.00,Wunderground v.1.15,2013-02-06 00:42:00,
2013-02-05 19:48:00,57.0,54.7,29.90,SW,219,5.0,11.0,92,0.00,,,0.00,Wunderground v.1.15,2013-02-06 00:48:00,
2013-02-05 19:54:00,57.0,54.7,29.90,West,272,5.0,11.0,92,0.00,,,0.00,Wunderground v.1.15,2013-02-06 00:54:00,
2013-02-05 20:00:00,57.0,54.7,29.91,WSW,253,6.0,10.0,92,0.00,,,0.00,Wunderground v.1.15,2013-02-06 01:00:00,
2013-02-05 20:06:00,57.2,54.6,29.91,SW,236,6.0,10.0,91,0.00,,,0.00,Wunderground v.1.15,2013-02-06 01:06:00,
2013-02-05 20:12:00,57.2,54.6,29.91,WSW,258,7.0,7.0,91,0.00,,,0.00,Wunderground v.1.15,2013-02-06 01:12:00,
2013-02-05 20:18:00,57.2,54.6,29.90,WSW,239,6.0,7.0,91,0.00,,,0.00,Wunderground v.1.15,2013-02-06 01:18:00,
2013-02-05 20:24:00,57.0,54.4,29.90,WSW,254,6.0,10.0,91,0.00,,,0.00,Wunderground v.1.15,2013-02-06 01:24:00,
2013-02-05 20:30:00,57.0,54.1,29.91,WSW,243,6.0,7.0,90,0.00,,,0.00,Wunderground v.1.15,2013-02-06 01:30:00,
2013-02-05 20:36:00,57.0,54.1,29.91,SW,227,6.0,9.0,90,0.00,,,0.00,Wunderground v.1.15,2013-02-06 01:36:00,
2013-02-05 20:42:00,56.9,54.0,29.91,SW,219,6.0,10.0,90,0.00,,,0.00,Wunderground v.1.15,2013-02-06 01:42:00,
2013-02-05 20:48:00,56.9,54.0,29.91,SSW,213,5.0,10.0,90,0.00,,,0.00,Wunderground v.1.15,2013-02-06 01:48:00,
2013-02-05 20:54:00,56.7,53.8,29.91,West,260,6.0,10.0,90,0.00,,,0.00,Wunderground v.1.15,2013-02-06 01:54:00,
2013-02-05 21:00:00,56.6,53.7,29.91,SW,220,7.0,7.0,90,0.00,,,0.00,Wunderground v.1.15,2013-02-06 02:00:00,
2013-02-05 21:06:00,56.7,53.8,29.91,SW,234,6.0,7.0,90,0.00,,,0.00,Wunderground v.1.15,2013-02-06 02:06:00,
2013-02-05 21:12:00,56.7,53.8,29.91,West,261,5.0,6.0,90,0.00,,,0.00,Wunderground v.1.15,2013-02-06 02:12:00,
2013-02-05 21:18:00,56.6,53.7,29.92,West,260,5.0,7.0,90,0.00,,,0.00,Wunderground v.1.15,2013-02-06 02:18:00,
2013-02-05 21:24:00,56.5,53.6,29.92,SW,219,5.0,5.0,90,0.00,,,0.00,Wunderground v.1.15,2013-02-06 02:24:00,
2013-02-05 21:30:00,56.3,53.7,29.92,WSW,243,5.0,5.0,91,0.00,,,0.00,Wunderground v.1.15,2013-02-06 02:30:00,
2013-02-05 21:36:00,56.3,53.7,29.92,SSW,206,6.0,6.0,91,0.00,,,0.00,Wunderground v.1.15,2013-02-06 02:36:00,
2013-02-05 21:42:00,56.3,53.7,29.92,SW,230,5.0,13.0,91,0.00,,,0.00,Wunderground v.1.15,2013-02-06 02:42:00,
2013-02-05 21:48:00,56.3,53.7,29.93,WSW,240,6.0,13.0,91,0.00,,,0.00,Wunderground v.1.15,2013-02-06 02:48:00,
2013-02-05 21:54:00,56.5,53.9,29.93,WSW,241,6.0,7.0,91,0.00,,,0.00,Wunderground v.1.15,2013-02-06 02:54:00,
2013-02-05 22:00:00,56.5,53.6,29.92,West,267,5.0,5.0,90,0.00,,,0.00,Wunderground v.1.15,2013-02-06 03:00:00,
2013-02-05 22:06:00,56.5,53.6,29.92,West,275,6.0,8.0,90,0.00,,,0.00,Wunderground v.1.15,2013-02-06 03:06:00,
2013-02-05 22:12:00,56.6,53.4,29.92,WSW,237,7.0,8.0,89,0.00,,,0.00,Wunderground v.1.15,2013-02-06 03:12:00,
2013-02-05 22:18:00,56.7,53.2,29.93,WSW,253,7.0,8.0,88,0.00,,,0.00,Wunderground v.1.15,2013-02-06 03:18:00,
2013-02-05 22:24:00,56.7,53.2,29.93,SW,234,6.0,11.0,88,0.00,,,0.00,Wunderground v.1.15,2013-02-06 03:24:00,
2013-02-05 22:30:00,56.7,52.9,29.93,SW,229,8.0,8.0,87,0.00,,,0.00,Wunderground v.1.15,2013-02-06 03:30:00,
2013-02-05 22:36:00,56.6,53.1,29.93,WSW,257,6.0,8.0,88,0.00,,,0.00,Wunderground v.1.15,2013-02-06 03:36:00,
2013-02-05 22:42:00,56.6,52.8,29.93,WSW,243,5.0,6.0,87,0.00,,,0.00,Wunderground v.1.15,2013-02-06 03:42:00,
2013-02-05 22:48:00,56.5,53.0,29.93,SW,232,4.0,6.0,88,0.00,,,0.00,Wunderground v.1.15,2013-02-06 03:48:00,
2013-02-05 22:54:00,56.2,53.0,29.93,WSW,248,5.0,5.0,89,0.00,,,0.00,Wunderground v.1.15,2013-02-06 03:54:00,
2013-02-05 23:00:00,56.0,52.8,29.93,West,260,6.0,6.0,89,0.00,,,0.00,Wunderground v.1.15,2013-02-06 04:00:00,
2013-02-05 23:06:00,55.9,53.0,29.93,West,260,6.0,6.0,90,0.00,,,0.00,Wunderground v.1.15,2013-02-06 04:06:00,
2013-02-05 23:12:00,55.7,52.8,29.93,WSW,258,6.0,7.0,90,0.00,,,0.00,Wunderground v.1.15,2013-02-06 04:12:00,
2013-02-05 23:18:00,55.6,53.0,29.94,WSW,254,5.0,7.0,91,0.00,,,0.00,Wunderground v.1.15,2013-02-06 04:18:00,
2013-02-05 23:24:00,55.4,52.8,29.94,WSW,246,6.0,8.0,91,0.00,,,0.00,Wunderground v.1.15,2013-02-06 04:24:00,
2013-02-05 23:30:00,55.3,52.7,29.93,SW,215,5.0,6.0,91,0.00,,,0.00,Wunderground v.1.15,2013-02-06 04:30:00,
2013-02-05 23:36:00,55.3,52.7,29.93,SW,215,4.0,7.0,91,0.00,,,0.00,Wunderground v.1.15,2013-02-06 04:36:00,
2013-02-05 23:42:00,55.3,53.0,29.93,SW,217,4.0,5.0,92,0.00,,,0.00,Wunderground v.1.15,2013-02-06 04:42:00,
2013-02-05 23:48:00,55.3,52.7,29.93,SW,215,6.0,13.0,91,0.00,,,0.00,Wunderground v.1.15,2013-02-06 04:48:00,
2013-02-05 23:54:00,55.3,52.7,29.93,WSW,239,6.0,10.0,91,0.00,,,0.00,Wunderground v.1.15,2013-02-06 04:54:00,